createdAt,value
2023-03-16T00:01:42.277Z,7.50
2023-03-16T00:07:44.183Z,7.30
2023-03-16T00:13:45.965Z,5.18
2023-03-16T00:19:55.601Z,5.10
2023-03-16T00:25:59.002Z,5.22
2023-03-16T00:32:00.912Z,6.28
2023-03-16T00:38:02.746Z,8.25
2023-03-16T00:44:09.973Z,7.82
2023-03-16T00:50:12.059Z,7.78
2023-03-16T00:56:14.416Z,7.28
2023-03-16T01:02:19.261Z,7.45
2023-03-16T01:08:22.589Z,7.28
2023-03-16T01:14:24.438Z,6.95
2023-03-16T01:20:26.545Z,7.38
2023-03-16T01:26:30.637Z,7.50
2023-03-16T01:32:32.872Z,7.97
2023-03-16T01:38:35.970Z,6.95
2023-03-16T01:45:28.740Z,14.00
2023-03-16T01:51:41.994Z,10.25
2023-03-16T01:57:46.620Z,8.40
2023-03-16T02:03:49.024Z,8.45
2023-03-16T02:09:59.693Z,8.88
2023-03-16T02:16:02.813Z,7.85
2023-03-16T02:22:08.602Z,7.78
2023-03-16T02:28:22.588Z,7.68
2023-03-16T02:34:25.242Z,7.47
2023-03-16T02:40:32.903Z,7.38
2023-03-16T02:46:39.290Z,7.05
2023-03-16T02:52:41.144Z,6.97
2023-03-16T02:58:43.233Z,6.75
2023-03-16T03:10:52.048Z,6.28
2023-03-16T03:16:55.300Z,6.63
2023-03-16T03:22:57.490Z,5.10
2023-03-16T03:28:59.390Z,5.15
2023-03-16T03:35:01.390Z,5.38
2023-03-16T03:41:04.099Z,3.25
2023-03-16T03:47:09.145Z,3.50
2023-03-16T03:53:11.054Z,3.20
2023-03-16T03:59:33.115Z,3.72
2023-03-16T04:05:47.600Z,4.28
2023-03-16T04:11:49.706Z,2.90
2023-03-16T04:17:54.752Z,3.45
2023-03-16T04:23:56.699Z,3.95
2023-03-16T04:30:11.720Z,3.35
2023-03-16T04:36:17.378Z,3.45
2023-03-16T04:42:20.034Z,2.83
2023-03-16T04:48:25.948Z,3.25
2023-03-16T04:54:28.187Z,3.07
2023-03-16T05:00:30.567Z,2.90
2023-03-16T05:06:43.040Z,3.00
2023-03-16T05:12:46.882Z,3.28
2023-03-16T05:18:49.343Z,3.47
2023-03-16T05:24:54.021Z,3.45
2023-03-16T05:30:56.522Z,3.60
2023-03-16T05:37:01.747Z,3.72
2023-03-16T05:43:04.620Z,3.65
2023-03-16T05:49:13.068Z,3.83
2023-03-16T05:55:16.967Z,3.13
2023-03-16T06:01:22.202Z,3.25
2023-03-16T06:07:24.862Z,4.03
2023-03-16T06:13:30.020Z,3.42
2023-03-16T06:19:32.205Z,3.42
2023-03-16T06:25:39.465Z,3.20
2023-03-16T06:31:42.977Z,2.87
2023-03-16T06:37:45.919Z,3.95
2023-03-16T06:44:02.733Z,3.80
2023-03-16T06:50:05.407Z,3.67
2023-03-16T06:56:07.514Z,3.60
2023-03-16T07:02:15.013Z,3.47
2023-03-16T07:08:17.174Z,3.72
2023-03-16T07:14:19.963Z,3.83
2023-03-16T07:20:23.904Z,4.57
2023-03-16T07:26:26.061Z,3.95
2023-03-16T07:32:33.017Z,3.88
2023-03-16T07:38:35.859Z,4.20
2023-03-16T07:44:38.574Z,4.10
2023-03-16T07:50:41.512Z,3.72
2023-03-16T07:56:49.283Z,3.50
2023-03-16T08:03:02.772Z,3.05
2023-03-16T08:09:05.876Z,3.45
2023-03-16T08:15:11.791Z,3.38
2023-03-16T08:21:15.375Z,3.45
2023-03-16T08:27:19.738Z,2.88
2023-03-16T08:33:26.054Z,3.35
2023-03-16T08:39:29.056Z,3.30
2023-03-16T08:45:33.352Z,3.60
2023-03-16T08:51:35.219Z,3.05
2023-03-16T08:57:39.287Z,3.15
2023-03-16T09:03:42.354Z,3.10
2023-03-16T09:09:45.219Z,3.08
2023-03-16T09:15:47.690Z,3.40
2023-03-16T09:21:49.459Z,3.20
2023-03-16T09:27:51.679Z,3.08
2023-03-16T09:33:54.534Z,2.88
2023-03-16T09:40:03.246Z,2.80
2023-03-16T09:46:36.304Z,2.58
2023-03-16T09:52:57.566Z,2.80
2023-03-16T09:59:00.011Z,2.58
2023-03-16T10:05:17.037Z,3.35
2023-03-16T10:11:44.860Z,2.80
2023-03-16T10:17:52.594Z,3.20
2023-03-16T10:30:04.553Z,2.90
2023-03-16T10:36:15.816Z,3.13
2023-03-16T10:42:20.110Z,2.65
2023-03-16T10:48:22.150Z,3.85
2023-03-16T10:54:40.009Z,2.80
2023-03-16T11:00:43.483Z,2.67
2023-03-16T11:06:56.965Z,2.33
2023-03-16T11:13:17.629Z,2.10
2023-03-16T11:19:46.475Z,2.05
2023-03-16T11:25:54.336Z,1.88
2023-03-16T11:32:04.351Z,1.52
2023-03-16T11:38:36.213Z,2.13
2023-03-16T11:44:44.627Z,1.48
2023-03-16T11:50:50.401Z,1.60
2023-03-16T11:56:59.826Z,1.50
2023-03-16T12:03:40.089Z,1.65
2023-03-16T12:09:50.706Z,2.47
2023-03-16T12:15:56.986Z,2.00
2023-03-16T12:22:13.718Z,2.25
2023-03-16T12:28:23.927Z,2.53
2023-03-16T12:34:40.915Z,2.22
2023-03-16T12:40:55.860Z,2.70
2023-03-16T12:47:48.690Z,2.33
2023-03-16T12:53:55.290Z,2.83
2023-03-16T13:00:00.735Z,2.45
2023-03-16T13:06:03.462Z,2.28
2023-03-16T13:12:06.614Z,2.30
2023-03-16T13:18:14.938Z,2.65
2023-03-16T13:24:28.860Z,2.20
2023-03-16T13:30:33.567Z,2.28
2023-03-16T13:36:37.048Z,2.33
2023-03-16T13:42:38.839Z,2.05
2023-03-16T13:48:41.723Z,2.22
2023-03-16T13:54:43.706Z,1.90
2023-03-16T14:00:45.876Z,2.67
2023-03-16T14:07:02.361Z,2.17
2023-03-16T14:13:09.613Z,1.80
2023-03-16T14:19:22.624Z,1.53
2023-03-16T14:25:27.923Z,1.60
2023-03-16T14:31:39.681Z,1.60
2023-03-16T14:37:42.427Z,1.50
2023-03-16T14:43:49.729Z,1.58
2023-03-16T14:49:52.188Z,1.15
2023-03-16T14:55:58.172Z,1.35
2023-03-16T15:02:03.310Z,1.35
2023-03-16T15:08:10.900Z,1.50
2023-03-16T15:14:35.456Z,1.38
2023-03-16T15:20:44.192Z,1.38
2023-03-16T15:26:46.057Z,1.15
2023-03-16T15:32:48.067Z,1.30
2023-03-16T15:38:53.689Z,1.27
2023-03-16T15:44:55.780Z,1.30
2023-03-16T15:51:01.768Z,1.55
2023-03-16T15:57:03.768Z,1.17
2023-03-16T16:03:07.275Z,1.35
2023-03-16T16:09:09.268Z,1.30
2023-03-16T16:15:29.637Z,1.20
2023-03-16T16:21:32.599Z,1.23
2023-03-16T16:27:34.392Z,1.25
2023-03-16T16:33:37.200Z,1.23
2023-03-16T16:39:39.349Z,1.77
2023-03-16T16:45:41.187Z,1.20
2023-03-16T16:51:43.300Z,1.33
2023-03-16T16:57:45.657Z,1.30
2023-03-16T17:03:47.422Z,1.73
2023-03-16T17:09:49.222Z,1.50
2023-03-16T17:15:51.134Z,1.65
2023-03-16T17:21:55.382Z,1.48
2023-03-16T17:27:58.027Z,1.27
2023-03-16T17:33:59.920Z,1.60
2023-03-16T17:40:01.730Z,1.25
2023-03-16T17:46:04.957Z,1.67
2023-03-16T17:52:21.654Z,1.63
2023-03-16T17:58:31.464Z,1.50
2023-03-16T18:04:33.575Z,1.92
2023-03-16T18:10:36.940Z,1.70
2023-03-16T18:16:39.229Z,1.80
2023-03-16T18:22:42.658Z,1.58
2023-03-16T18:28:45.719Z,1.77
2023-03-16T18:34:48.075Z,1.40
2023-03-16T18:40:49.920Z,1.63
2023-03-16T18:46:57.480Z,1.95
2023-03-16T18:52:59.412Z,1.92
2023-03-16T18:59:02.250Z,1.95
2023-03-16T19:05:07.665Z,2.05
2023-03-16T19:11:11.045Z,1.50
2023-03-16T19:17:12.903Z,1.63
2023-03-16T19:23:35.284Z,1.38
2023-03-16T19:29:37.211Z,1.65
2023-03-16T19:35:51.104Z,1.80
2023-03-16T19:42:00.021Z,1.70
2023-03-16T19:48:02.384Z,1.50
2023-03-16T19:54:04.351Z,1.52
2023-03-16T20:00:07.792Z,1.70
2023-03-16T20:06:14.744Z,1.73
2023-03-16T20:12:23.016Z,1.93
2023-03-16T20:18:24.938Z,1.92
2023-03-16T20:24:28.752Z,2.05
2023-03-16T20:30:31.911Z,2.35
2023-03-16T20:36:33.700Z,1.98
2023-03-16T20:42:36.934Z,1.80
2023-03-16T20:48:38.761Z,1.90
2023-03-16T20:54:40.517Z,2.33
2023-03-16T21:00:44.328Z,1.77
2023-03-16T21:06:48.831Z,2.22
2023-03-16T21:12:56.545Z,2.03
2023-03-16T21:18:58.283Z,2.15
2023-03-16T21:25:00.407Z,2.03
2023-03-16T21:31:02.999Z,1.92
2023-03-16T21:37:13.461Z,2.10
2023-03-16T21:43:16.508Z,2.33
2023-03-16T21:49:21.717Z,2.08
2023-03-16T21:55:26.964Z,2.28
2023-03-16T22:01:31.465Z,1.90
2023-03-16T22:07:33.339Z,2.28
2023-03-16T22:13:35.243Z,2.22
2023-03-16T22:19:37.163Z,2.53
2023-03-16T22:25:38.921Z,2.45
2023-03-16T22:31:41.279Z,2.47
2023-03-16T22:37:43.159Z,2.88
2023-03-16T22:43:45.920Z,2.55
2023-03-16T22:49:47.822Z,3.20
2023-03-16T22:55:51.008Z,2.75
2023-03-16T23:01:59.019Z,2.63
2023-03-16T23:08:02.580Z,2.67
2023-03-16T23:14:14.190Z,3.03
2023-03-16T23:20:32.000Z,3.30
2023-03-16T23:26:33.984Z,2.67
2023-03-16T23:32:35.848Z,3.10
2023-03-16T23:38:37.669Z,2.72
2023-03-16T23:44:39.562Z,3.50
2023-03-16T23:50:42.076Z,3.25
2023-03-16T23:56:43.879Z,2.92
